Le Roy, IL (61752)

3:10 AM CDT on August 30, 2015 (GMT -0500)
LeRoy Fertilizer | | Change Station
CLOSE
Current Station
Personal Weather Station
Location: Le Roy, IL
Elevation: 784 ft
Nearby Weather Stations

Elev 784 ft 40.35 °N, 88.77 °W | Updated 11 minutes ago

Fog
Fog
69.3 °F
Feels Like 69.3 °F
N
0.0
Wind Variable Wind from West
Gusts 2.0 mph

Today
High -- | Low -- °F
--% Chance of Precip.
Yesterday
High -- | Low -- °F
Precip. -- in
6:20 AM 7:30 PM
Full, 100% visible
Pressure 30.03 in
Visibility 0.8 miles
Clouds Mostly Cloudy 4800 ft
Dew Point 67 °F
Humidity 93%
Rainfall 0.00 in
Snow Depth Not available.
UV 0 out of 12
Pollen 9.90 out of 12
Air Quality Not available.
Flu Activity Not available.
SPECI KBMI 300802Z AUTO 01003KT 3/4SM R29/2400VP6000FT BR BKN048 19/19 A3003 RMK AO2
Pressure 30.03 in
Visibility 0.8 miles
Clouds Mostly Cloudy 4800 ft
Dew Point 67 °F
Humidity 93%
Rainfall 0.00 in
Snow Depth Not available.
UV 0 out of 12
Pollen 9.90 out of 12
Air Quality Not available.
Flu Activity Not available.
SPECI KBMI 300802Z AUTO 01003KT 3/4SM R29/2400VP6000FT BR BKN048 19/19 A3003 RMK AO2

10-Day Weather Forecast

×

Almanac

Astronomy

Aug. 30, 2015 Rise Set
Actual Time
Civil Twilight
Nautical Twilight
Astronomical Twilight
Moon
Length of Visible Light
Length of Day
Tomorrow will be .
, % of the Moon is Illuminated

Today's Extremes

State Highs State Lows

Community

WunderPhotos

Upload Photos

1,850,909 photos uploaded!

WunderBlogs® & News

Nearby

Air Quality

  Air Quality AQ Index Pollutant
Not available.

Snow Depth

Station Depth Elevation

Earthquake Activity

City Distance Mag. Time & Date
Minimum magnitude displayed is 2.5.

Coastal Water Temperatures

Place Temperature

Stations

Nearby Weather Stations

Station Location Temp. Windchill Dew Point Humidity Wind Precip. Elev Updated Type